createdAt,value
2023-05-08T00:00:57.537Z,99162.66
2023-05-08T00:02:03.850Z,99163.59
2023-05-08T00:03:10.176Z,99163.67
2023-05-08T00:04:16.249Z,99162.31
2023-05-08T00:05:22.450Z,99160.81
2023-05-08T00:06:31.825Z,99157.10
2023-05-08T00:07:39.088Z,99160.04
2023-05-08T00:08:44.629Z,99156.81
2023-05-08T00:09:50.078Z,99156.42
2023-05-08T00:10:55.616Z,99159.91
2023-05-08T00:12:01.441Z,99158.86
2023-05-08T00:13:07.344Z,99159.67
2023-05-08T00:14:13.634Z,99158.31
2023-05-08T00:15:19.403Z,99158.08
2023-05-08T00:16:25.496Z,99158.89
2023-05-08T00:17:31.797Z,99158.66
2023-05-08T00:18:39.448Z,99159.16
2023-05-08T00:19:45.409Z,99156.55
2023-05-08T00:20:51.129Z,99156.81
2023-05-08T00:21:56.883Z,99155.86
2023-05-08T00:23:03.570Z,99156.02
2023-05-08T00:24:10.135Z,99158.32
2023-05-08T00:25:15.770Z,99153.80
2023-05-08T00:26:22.326Z,99151.98
2023-05-08T00:27:28.719Z,99151.98
2023-05-08T00:28:34.481Z,99149.42
2023-05-08T00:29:41.835Z,99147.21
2023-05-08T00:30:47.529Z,99149.60
2023-05-08T00:31:53.426Z,99147.67
2023-05-08T00:32:59.607Z,99144.66
2023-05-08T00:34:05.875Z,99148.88
2023-05-08T00:35:12.093Z,99148.00
2023-05-08T00:36:18.002Z,99143.55
2023-05-08T00:37:24.766Z,99142.77
2023-05-08T00:38:35.176Z,99143.82
2023-05-08T00:39:41.228Z,99141.27
2023-05-08T00:40:46.462Z,99144.60
2023-05-08T00:41:52.146Z,99144.27
2023-05-08T00:42:57.706Z,99146.10
2023-05-08T00:44:03.009Z,99146.02
2023-05-08T00:45:10.885Z,99145.96
2023-05-08T00:46:16.857Z,99145.17
2023-05-08T00:47:23.105Z,99147.11
2023-05-08T00:48:36.992Z,99147.43
2023-05-08T00:49:42.759Z,99142.34
2023-05-08T00:50:48.000Z,99142.02
2023-05-08T00:51:54.748Z,99142.23
2023-05-08T00:53:01.759Z,99141.20
2023-05-08T00:54:07.850Z,99139.86
2023-05-08T00:55:14.135Z,99140.58
2023-05-08T00:56:19.831Z,99142.70
2023-05-08T00:57:25.859Z,99138.75
2023-05-08T00:58:32.074Z,99140.02
2023-05-08T00:59:37.890Z,99140.52
2023-05-08T01:00:44.848Z,99139.01
2023-05-08T01:01:50.947Z,99137.73
2023-05-08T01:02:56.788Z,99135.67
2023-05-08T01:04:03.625Z,99136.73
2023-05-08T01:05:09.606Z,99137.93
2023-05-08T01:06:15.531Z,99139.21
2023-05-08T01:07:21.785Z,99142.48
2023-05-08T01:08:27.550Z,99141.98
2023-05-08T01:09:36.114Z,99139.66
2023-05-08T01:10:52.593Z,99142.99
2023-05-08T01:12:37.783Z,99143.65
2023-05-08T01:14:09.180Z,99141.79
2023-05-08T01:15:29.527Z,99141.98
2023-05-08T01:16:47.574Z,99142.12
2023-05-08T01:18:21.352Z,99138.13
2023-05-08T01:20:06.948Z,99134.15
2023-05-08T01:21:44.223Z,99136.66
2023-05-08T01:23:26.651Z,99137.68
2023-05-08T01:24:59.336Z,99135.91
2023-05-08T01:26:38.933Z,99137.90
2023-05-08T01:28:08.989Z,99139.50
2023-05-08T01:29:50.358Z,99138.06
2023-05-08T01:31:23.092Z,99140.02
2023-05-08T01:32:30.851Z,99137.98
2023-05-08T01:34:03.606Z,99138.85
2023-05-08T01:35:25.544Z,99139.20
2023-05-08T01:36:49.660Z,99136.04
2023-05-08T01:38:16.323Z,99140.48
2023-05-08T01:39:33.486Z,99141.59
2023-05-08T01:41:10.151Z,99145.96
2023-05-08T01:42:24.426Z,99147.96
2023-05-08T01:43:51.703Z,99151.08
2023-05-08T01:45:02.632Z,99151.68
2023-05-08T01:46:11.284Z,99152.95
2023-05-08T01:47:20.221Z,99153.06
2023-05-08T01:48:37.285Z,99154.20
2023-05-08T01:49:47.294Z,99154.23
2023-05-08T01:50:57.074Z,99151.84
2023-05-08T01:52:05.007Z,99153.94
2023-05-08T01:53:23.115Z,99152.14
2023-05-08T01:54:31.256Z,99152.48
2023-05-08T01:55:37.817Z,99154.52
2023-05-08T01:56:45.861Z,99158.02
2023-05-08T01:57:54.817Z,99156.52
2023-05-08T01:59:00.780Z,99157.60
2023-05-08T02:00:08.663Z,99157.85
2023-05-08T02:01:19.377Z,99158.09
2023-05-08T02:02:25.930Z,99159.45
2023-05-08T02:03:33.502Z,99158.61
2023-05-08T02:04:39.835Z,99159.09
2023-05-08T02:05:46.469Z,99159.81
2023-05-08T02:06:53.036Z,99157.14
2023-05-08T02:07:59.303Z,99161.51
2023-05-08T02:09:05.742Z,99159.20
2023-05-08T02:10:11.754Z,99157.37
2023-05-08T02:11:18.093Z,99158.09
2023-05-08T02:12:24.693Z,99161.25
2023-05-08T02:13:31.444Z,99157.89
2023-05-08T02:14:38.139Z,99158.58
2023-05-08T02:15:49.306Z,99159.13
2023-05-08T02:16:59.014Z,99157.52
2023-05-08T02:18:06.153Z,99152.66
2023-05-08T02:19:12.962Z,99155.94
2023-05-08T02:20:19.944Z,99156.19
2023-05-08T02:21:27.947Z,99159.52
2023-05-08T02:22:34.722Z,99158.67
2023-05-08T02:23:41.832Z,99162.88
2023-05-08T02:24:48.535Z,99161.84
2023-05-08T02:25:55.340Z,99161.05
2023-05-08T02:27:02.576Z,99160.44
2023-05-08T02:28:09.116Z,99161.31
2023-05-08T02:29:16.336Z,99161.54
2023-05-08T02:30:25.700Z,99157.04
2023-05-08T02:31:33.107Z,99159.82
2023-05-08T02:32:45.378Z,99160.46
2023-05-08T02:33:53.204Z,99162.30
2023-05-08T02:35:03.433Z,99161.09
2023-05-08T02:36:11.969Z,99159.75
2023-05-08T02:37:19.657Z,99161.27
2023-05-08T02:38:27.361Z,99161.27
2023-05-08T02:39:35.583Z,99159.77
2023-05-08T02:40:47.337Z,99159.55
2023-05-08T02:41:54.126Z,99161.05
2023-05-08T02:43:01.844Z,99161.77
2023-05-08T02:44:09.193Z,99160.83
2023-05-08T02:45:15.732Z,99160.33
2023-05-08T02:46:46.657Z,99159.86
2023-05-08T02:48:18.494Z,99161.61
2023-05-08T02:49:46.252Z,99164.45
2023-05-08T02:50:58.069Z,99166.18
2023-05-08T02:52:14.958Z,99164.25
2023-05-08T02:53:26.419Z,99164.64
2023-05-08T02:54:53.274Z,99165.70
2023-05-08T02:56:04.689Z,99166.94
2023-05-08T02:57:29.593Z,99166.21
2023-05-08T02:58:54.844Z,99168.85
2023-05-08T03:00:22.990Z,99170.17
2023-05-08T03:01:32.871Z,99169.61
2023-05-08T03:02:52.369Z,99170.49
2023-05-08T03:04:09.544Z,99172.27
2023-05-08T03:05:21.402Z,99174.09
2023-05-08T03:06:28.639Z,99177.52
2023-05-08T03:07:40.114Z,99176.31
2023-05-08T03:08:48.064Z,99177.52
2023-05-08T03:10:03.005Z,99179.48
2023-05-08T03:11:11.832Z,99179.59
2023-05-08T03:12:22.058Z,99177.54
2023-05-08T03:13:30.102Z,99176.37
2023-05-08T03:14:39.883Z,99175.32
2023-05-08T03:16:01.609Z,99176.76
2023-05-08T03:17:11.135Z,99172.71
2023-05-08T03:18:21.793Z,99174.93
2023-05-08T03:19:32.180Z,99175.75
2023-05-08T03:20:43.785Z,99174.08
2023-05-08T03:21:50.399Z,99177.17
2023-05-08T03:22:56.652Z,99173.79
2023-05-08T03:24:03.682Z,99174.40
2023-05-08T03:25:11.336Z,99174.73
2023-05-08T03:26:21.658Z,99177.21
2023-05-08T03:27:31.555Z,99178.09
2023-05-08T03:28:37.856Z,99176.83
2023-05-08T03:29:44.316Z,99174.08
2023-05-08T03:30:50.555Z,99178.05
2023-05-08T03:31:58.256Z,99178.46
2023-05-08T03:33:08.590Z,99180.83
2023-05-08T03:34:17.076Z,99186.39
2023-05-08T03:35:22.917Z,99183.06
2023-05-08T03:36:30.008Z,99184.36
2023-05-08T03:37:37.373Z,99186.33
2023-05-08T03:38:43.945Z,99187.44
2023-05-08T03:39:50.098Z,99187.23
2023-05-08T03:40:56.617Z,99191.25
2023-05-08T03:42:02.397Z,99190.24
2023-05-08T03:43:09.489Z,99189.14
2023-05-08T03:44:15.731Z,99190.89
2023-05-08T03:45:21.751Z,99192.55
2023-05-08T03:46:27.945Z,99192.10
2023-05-08T03:47:36.708Z,99196.29
2023-05-08T03:48:43.020Z,99197.55
2023-05-08T03:49:49.961Z,99199.52
2023-05-08T03:50:56.084Z,99200.95
2023-05-08T03:52:02.447Z,99202.72
2023-05-08T03:53:08.089Z,99202.84
2023-05-08T03:54:14.173Z,99202.56
2023-05-08T03:55:19.897Z,99204.55
2023-05-08T03:56:26.149Z,99206.09
2023-05-08T03:57:47.166Z,99203.98
2023-05-08T03:59:01.974Z,99206.51
2023-05-08T04:00:10.800Z,99210.48
2023-05-08T04:01:42.936Z,99210.42
2023-05-08T04:03:23.631Z,99214.41
2023-05-08T04:04:46.460Z,99213.34
2023-05-08T04:06:12.615Z,99214.45
2023-05-08T04:07:28.890Z,99216.27
2023-05-08T04:08:40.383Z,99217.09
2023-05-08T04:10:11.844Z,99217.48
2023-05-08T04:11:25.434Z,99220.33
2023-05-08T04:12:56.717Z,99219.13
2023-05-08T04:14:05.149Z,99220.23
2023-05-08T04:15:13.720Z,99219.52
2023-05-08T04:16:28.057Z,99221.27
2023-05-08T04:17:49.049Z,99222.02
2023-05-08T04:19:02.868Z,99224.67
2023-05-08T04:20:10.055Z,99225.52
2023-05-08T04:21:19.984Z,99227.21
2023-05-08T04:22:25.970Z,99224.66
2023-05-08T04:23:32.166Z,99229.46
2023-05-08T04:24:43.253Z,99227.08
2023-05-08T04:25:49.702Z,99230.18
2023-05-08T04:26:55.459Z,99232.23
2023-05-08T04:28:03.259Z,99235.52
2023-05-08T04:29:10.446Z,99241.48
2023-05-08T04:30:17.012Z,99240.05
2023-05-08T04:31:23.359Z,99240.54
2023-05-08T04:32:29.621Z,99238.64
2023-05-08T04:33:36.416Z,99237.85
2023-05-08T04:34:43.329Z,99238.59
2023-05-08T04:35:49.442Z,99244.06
2023-05-08T04:36:56.230Z,99241.05
2023-05-08T04:38:02.289Z,99242.42
2023-05-08T04:39:08.945Z,99243.87
2023-05-08T04:40:15.555Z,99244.91
2023-05-08T04:41:22.152Z,99243.41
2023-05-08T04:42:28.382Z,99245.11
2023-05-08T04:43:36.437Z,99243.90
2023-05-08T04:44:42.661Z,99244.35
2023-05-08T04:45:48.537Z,99248.13
2023-05-08T04:46:53.848Z,99248.34
2023-05-08T04:48:00.365Z,99251.67
2023-05-08T04:49:06.304Z,99248.67
2023-05-08T04:50:12.616Z,99251.38
2023-05-08T04:51:18.582Z,99252.91
2023-05-08T04:52:25.166Z,99252.69
2023-05-08T04:53:31.357Z,99250.56
2023-05-08T04:54:37.666Z,99249.72
2023-05-08T04:55:43.881Z,99249.88
2023-05-08T04:56:49.703Z,99251.98
2023-05-08T04:57:55.351Z,99255.69
2023-05-08T04:59:01.256Z,99254.58
2023-05-08T05:00:08.202Z,99253.48
2023-05-08T05:01:16.453Z,99252.27
2023-05-08T05:02:22.322Z,99255.42
2023-05-08T05:03:28.000Z,99253.92
2023-05-08T05:04:34.340Z,99253.27
2023-05-08T05:05:40.358Z,99253.38
2023-05-08T05:06:46.603Z,99254.55
2023-05-08T05:07:52.150Z,99256.04
2023-05-08T05:08:58.699Z,99255.98
2023-05-08T05:10:04.864Z,99255.49
2023-05-08T05:11:11.541Z,99252.48
2023-05-08T05:12:17.642Z,99251.21
2023-05-08T05:13:24.136Z,99250.66
2023-05-08T05:14:31.204Z,99254.10
2023-05-08T05:15:37.108Z,99254.64
2023-05-08T05:16:43.071Z,99254.09
2023-05-08T05:17:49.147Z,99251.55
2023-05-08T05:18:55.168Z,99249.33
2023-05-08T05:20:01.775Z,99247.55
2023-05-08T05:21:07.985Z,99247.55
2023-05-08T05:22:14.603Z,99241.58
2023-05-08T05:23:20.273Z,99240.50
2023-05-08T05:24:26.042Z,99238.58
2023-05-08T05:25:31.944Z,99238.80
2023-05-08T05:26:38.744Z,99239.52
2023-05-08T05:27:45.087Z,99237.95
2023-05-08T05:28:50.564Z,99236.06
2023-05-08T05:29:56.137Z,99233.71
2023-05-08T05:31:02.405Z,99233.88
2023-05-08T05:32:08.180Z,99237.42
2023-05-08T05:33:13.423Z,99234.59
2023-05-08T05:34:18.751Z,99232.96
2023-05-08T05:35:25.767Z,99232.66
2023-05-08T05:36:31.950Z,99237.88
2023-05-08T05:37:38.604Z,99238.21
2023-05-08T05:38:44.985Z,99234.49
2023-05-08T05:39:50.518Z,99236.48
2023-05-08T05:40:56.559Z,99233.09
2023-05-08T05:42:03.087Z,99234.13
2023-05-08T05:43:08.552Z,99237.23
2023-05-08T05:44:14.913Z,99237.15
2023-05-08T05:45:20.582Z,99231.20
2023-05-08T05:46:32.913Z,99228.59
2023-05-08T05:47:40.609Z,99231.27
2023-05-08T05:48:46.830Z,99228.81
2023-05-08T05:49:52.304Z,99229.76
2023-05-08T05:50:58.492Z,99228.81
2023-05-08T05:52:04.216Z,99224.13
2023-05-08T05:53:11.090Z,99226.77
2023-05-08T05:54:16.909Z,99224.88
2023-05-08T05:55:23.001Z,99224.33
2023-05-08T05:56:28.851Z,99222.66
2023-05-08T05:57:34.870Z,99222.83
2023-05-08T05:58:45.372Z,99219.77
2023-05-08T05:59:51.569Z,99222.20
2023-05-08T06:01:01.683Z,99218.61
2023-05-08T06:02:11.188Z,99217.48
2023-05-08T06:03:17.233Z,99213.26
2023-05-08T06:04:23.451Z,99213.33
2023-05-08T06:05:30.166Z,99214.30
2023-05-08T06:06:36.986Z,99211.66
2023-05-08T06:07:43.526Z,99208.36
2023-05-08T06:08:49.180Z,99208.52
2023-05-08T06:09:54.926Z,99207.96
2023-05-08T06:11:01.070Z,99205.52
2023-05-08T06:12:07.223Z,99205.13
2023-05-08T06:13:13.432Z,99206.95
2023-05-08T06:14:19.123Z,99206.16
2023-05-08T06:15:25.596Z,99203.79
2023-05-08T06:16:32.809Z,99205.45
2023-05-08T06:17:39.338Z,99207.84
2023-05-08T06:18:45.580Z,99208.55
2023-05-08T06:19:54.992Z,99202.66
2023-05-08T06:21:01.597Z,99204.98
2023-05-08T06:22:07.827Z,99202.91
2023-05-08T06:23:14.080Z,99203.40
2023-05-08T06:24:20.059Z,99204.33
2023-05-08T06:25:26.197Z,99200.52
2023-05-08T06:26:32.486Z,99204.80
2023-05-08T06:27:37.855Z,99205.11
2023-05-08T06:28:43.704Z,99202.24
2023-05-08T06:29:52.273Z,99202.64
2023-05-08T06:30:58.181Z,99204.30
2023-05-08T06:32:03.988Z,99199.14
2023-05-08T06:33:11.665Z,99199.31
2023-05-08T06:34:17.000Z,99201.63
2023-05-08T06:35:22.122Z,99197.69
2023-05-08T06:36:28.391Z,99199.67
2023-05-08T06:37:34.304Z,99200.79
2023-05-08T06:38:40.598Z,99196.49
2023-05-08T06:39:47.765Z,99192.84
2023-05-08T06:40:55.863Z,99196.34
2023-05-08T06:42:02.012Z,99194.13
2023-05-08T06:43:08.582Z,99195.33
2023-05-08T06:44:14.408Z,99194.21
2023-05-08T06:45:20.255Z,99196.11
2023-05-08T06:46:26.748Z,99195.55
2023-05-08T06:47:33.125Z,99199.54
2023-05-08T06:48:39.331Z,99195.95
2023-05-08T06:49:45.785Z,99195.45
2023-05-08T06:50:53.069Z,99197.38
2023-05-08T06:51:59.220Z,99198.48
2023-05-08T06:53:05.119Z,99197.70
2023-05-08T06:54:11.761Z,99200.16
2023-05-08T06:55:18.015Z,99199.77
2023-05-08T06:56:25.139Z,99197.95
2023-05-08T06:57:30.805Z,99199.20
2023-05-08T06:58:37.265Z,99201.76
2023-05-08T06:59:43.132Z,99199.15
2023-05-08T07:00:49.057Z,99199.15
2023-05-08T07:01:55.088Z,99199.21
2023-05-08T07:03:01.085Z,99198.50
2023-05-08T07:04:07.245Z,99196.67
2023-05-08T07:05:13.695Z,99197.00
2023-05-08T07:06:19.814Z,99198.19
2023-05-08T07:07:26.565Z,99195.97
2023-05-08T07:08:33.023Z,99196.69
2023-05-08T07:09:38.968Z,99197.41
2023-05-08T07:10:44.313Z,99197.90
2023-05-08T07:11:49.773Z,99194.73
2023-05-08T07:12:55.162Z,99197.55
2023-05-08T07:14:00.896Z,99196.59
2023-05-08T07:15:17.685Z,99197.88
2023-05-08T07:16:31.788Z,99196.38
2023-05-08T07:17:38.516Z,99197.94
2023-05-08T07:18:44.962Z,99201.75
2023-05-08T07:19:54.054Z,99201.83
2023-05-08T07:20:59.951Z,99202.88
2023-05-08T07:22:06.562Z,99200.55
2023-05-08T07:23:13.121Z,99199.50
2023-05-08T07:24:18.537Z,99200.58
2023-05-08T07:25:24.801Z,99199.85
2023-05-08T07:26:31.073Z,99197.64
2023-05-08T07:27:37.593Z,99197.80
2023-05-08T07:28:44.049Z,99199.02
2023-05-08T07:29:49.756Z,99202.29
2023-05-08T07:30:55.531Z,99203.61
2023-05-08T07:32:01.998Z,99201.73
2023-05-08T07:33:07.849Z,99202.15
2023-05-08T07:34:13.697Z,99198.82
2023-05-08T07:35:20.365Z,99198.73
2023-05-08T07:36:26.061Z,99198.59
2023-05-08T07:37:31.918Z,99196.92
2023-05-08T07:38:37.834Z,99193.11
2023-05-08T07:39:43.985Z,99194.14
2023-05-08T07:40:49.798Z,99194.31
2023-05-08T07:41:55.358Z,99195.48
2023-05-08T07:43:01.454Z,99196.70
2023-05-08T07:44:07.042Z,99194.42
2023-05-08T07:45:13.834Z,99195.59
2023-05-08T07:46:20.296Z,99195.29
2023-05-08T07:47:26.006Z,99193.07
2023-05-08T07:48:32.535Z,99191.25
2023-05-08T07:49:39.019Z,99188.70
2023-05-08T07:50:45.357Z,99188.59
2023-05-08T07:51:50.781Z,99189.54
2023-05-08T07:52:56.414Z,99187.09
2023-05-08T07:54:02.334Z,99191.31
2023-05-08T07:55:08.357Z,99190.04
2023-05-08T07:56:13.883Z,99191.48
2023-05-08T07:57:19.686Z,99186.84
2023-05-08T07:58:25.363Z,99187.27
2023-05-08T07:59:30.824Z,99188.86
2023-05-08T08:00:37.013Z,99187.20
2023-05-08T08:01:47.617Z,99183.92
2023-05-08T08:02:53.497Z,99185.59
2023-05-08T08:03:59.847Z,99185.10
2023-05-08T08:05:06.577Z,99187.48
2023-05-08T08:06:12.632Z,99187.48
2023-05-08T08:07:19.091Z,99189.88
2023-05-08T08:08:25.150Z,99184.16
2023-05-08T08:09:30.361Z,99187.88
2023-05-08T08:10:36.764Z,99186.38
2023-05-08T08:11:42.272Z,99185.77
2023-05-08T08:12:47.682Z,99185.92
2023-05-08T08:13:53.157Z,99184.02
2023-05-08T08:14:59.156Z,99184.52
2023-05-08T08:16:07.495Z,99184.28
2023-05-08T08:17:13.337Z,99185.27
2023-05-08T08:18:19.419Z,99181.27
2023-05-08T08:19:25.128Z,99183.83
2023-05-08T08:20:32.013Z,99184.58
2023-05-08T08:21:43.166Z,99181.64
2023-05-08T08:22:49.197Z,99179.33
2023-05-08T08:23:54.916Z,99180.92
2023-05-08T08:25:00.757Z,99184.34
2023-05-08T08:26:06.541Z,99182.13
2023-05-08T08:27:12.085Z,99178.14
2023-05-08T08:28:18.629Z,99181.90
2023-05-08T08:29:24.594Z,99183.23
2023-05-08T08:30:30.518Z,99181.23
2023-05-08T08:31:36.834Z,99180.61
2023-05-08T08:32:42.591Z,99183.23
2023-05-08T08:33:48.165Z,99184.66
2023-05-08T08:34:53.597Z,99181.67
2023-05-08T08:35:59.448Z,99183.34
2023-05-08T08:37:07.781Z,99182.62
2023-05-08T08:38:17.394Z,99185.05
2023-05-08T08:39:23.390Z,99184.27
2023-05-08T08:40:29.619Z,99181.17
2023-05-08T08:41:35.647Z,99179.11
2023-05-08T08:42:41.440Z,99176.73
2023-05-08T08:43:47.987Z,99175.89
2023-05-08T08:44:54.569Z,99178.72
2023-05-08T08:46:01.573Z,99178.90
2023-05-08T08:47:07.788Z,99179.12
2023-05-08T08:48:13.983Z,99178.41
2023-05-08T08:49:21.050Z,99178.33
2023-05-08T08:50:27.778Z,99176.67
2023-05-08T08:51:42.970Z,99171.11
2023-05-08T08:53:14.649Z,99172.23
2023-05-08T08:54:28.377Z,99172.27
2023-05-08T08:55:33.842Z,99172.11
2023-05-08T08:56:40.874Z,99168.05
2023-05-08T08:58:01.841Z,99168.78
2023-05-08T08:59:08.530Z,99165.02
2023-05-08T09:00:15.496Z,99165.73
2023-05-08T09:01:21.457Z,99164.45
2023-05-08T09:02:28.071Z,99164.27
2023-05-08T09:03:34.692Z,99164.98
2023-05-08T09:04:41.103Z,99165.52
2023-05-08T09:05:49.707Z,99162.13
2023-05-08T09:06:55.812Z,99160.14
2023-05-08T09:08:01.317Z,99160.40
2023-05-08T09:09:07.362Z,99164.28
2023-05-08T09:10:15.943Z,99162.30
2023-05-08T09:11:21.673Z,99161.77
2023-05-08T09:12:27.568Z,99161.05
2023-05-08T09:13:33.377Z,99161.15
2023-05-08T09:14:39.891Z,99160.59
2023-05-08T09:15:46.106Z,99162.59
2023-05-08T09:16:52.000Z,99160.85
2023-05-08T09:17:58.478Z,99163.95
2023-05-08T09:19:04.759Z,99163.80
2023-05-08T09:20:12.019Z,99163.48
2023-05-08T09:21:18.511Z,99161.35
2023-05-08T09:22:24.934Z,99161.84
2023-05-08T09:23:31.306Z,99159.46
2023-05-08T09:25:01.193Z,99156.97
2023-05-08T09:26:06.970Z,99157.60
2023-05-08T09:27:23.252Z,99156.94
2023-05-08T09:28:28.878Z,99158.02
2023-05-08T09:29:34.860Z,99153.09
2023-05-08T09:30:51.170Z,99151.64
2023-05-08T09:31:56.508Z,99152.20
2023-05-08T09:33:03.988Z,99149.91
2023-05-08T09:34:11.422Z,99152.36
2023-05-08T09:35:17.974Z,99150.70
2023-05-08T09:36:29.190Z,99149.59
2023-05-08T09:37:37.991Z,99148.77
2023-05-08T09:38:44.758Z,99149.95
2023-05-08T09:39:50.592Z,99149.10
2023-05-08T09:41:15.841Z,99147.98
2023-05-08T09:42:21.517Z,99144.56
2023-05-08T09:43:27.565Z,99144.33
2023-05-08T09:44:55.743Z,99143.21
2023-05-08T09:46:24.683Z,99144.30
2023-05-08T09:47:30.088Z,99147.79
2023-05-08T09:48:39.265Z,99149.67
2023-05-08T09:50:05.710Z,99148.24
2023-05-08T09:51:11.487Z,99149.85
2023-05-08T09:52:23.092Z,99149.20
2023-05-08T09:53:34.684Z,99150.47
2023-05-08T09:54:40.680Z,99150.63
2023-05-08T09:55:49.207Z,99148.17
2023-05-08T09:56:54.492Z,99145.08
2023-05-08T09:58:00.653Z,99149.07
2023-05-08T09:59:27.469Z,99147.95
2023-05-08T10:00:33.488Z,99146.35
2023-05-08T10:01:40.118Z,99150.07
2023-05-08T10:02:59.640Z,99146.36
2023-05-08T10:04:06.532Z,99148.17
2023-05-08T10:05:32.576Z,99146.26
2023-05-08T10:06:42.120Z,99143.33
2023-05-08T10:07:47.276Z,99144.98
2023-05-08T10:09:15.711Z,99143.80
2023-05-08T10:10:28.351Z,99139.98
2023-05-08T10:11:33.896Z,99142.28
2023-05-08T10:12:39.833Z,99140.45
2023-05-08T10:13:46.575Z,99139.50
2023-05-08T10:14:52.353Z,99139.42
2023-05-08T10:15:58.416Z,99145.80
2023-05-08T10:17:04.370Z,99148.41
2023-05-08T10:18:11.646Z,99145.96
2023-05-08T10:19:19.499Z,99143.84
2023-05-08T10:20:27.308Z,99145.66
2023-05-08T10:21:34.041Z,99141.84
2023-05-08T10:22:40.724Z,99142.34
2023-05-08T10:23:48.349Z,99143.71
2023-05-08T10:24:57.157Z,99143.15
2023-05-08T10:26:09.413Z,99147.04
2023-05-08T10:27:20.421Z,99147.36
2023-05-08T10:29:05.775Z,99148.70
2023-05-08T10:30:11.753Z,99151.28
2023-05-08T10:31:19.186Z,99152.46
2023-05-08T10:32:25.362Z,99153.02
2023-05-08T10:33:32.424Z,99153.59
2023-05-08T10:34:41.107Z,99154.81
2023-05-08T10:35:47.332Z,99149.59
2023-05-08T10:36:54.200Z,99147.14
2023-05-08T10:38:00.506Z,99147.14
2023-05-08T10:39:06.604Z,99148.73
2023-05-08T10:40:12.796Z,99148.56
2023-05-08T10:41:19.852Z,99147.63
2023-05-08T10:42:26.442Z,99153.57
2023-05-08T10:43:32.663Z,99153.50
2023-05-08T10:44:38.720Z,99150.70
2023-05-08T10:45:44.279Z,99151.19
2023-05-08T10:47:10.243Z,99146.42
2023-05-08T10:48:36.934Z,99146.25
2023-05-08T10:50:12.199Z,99140.31
2023-05-08T10:51:23.286Z,99141.00
2023-05-08T10:52:54.907Z,99139.95
2023-05-08T10:54:10.308Z,99138.77
2023-05-08T10:55:40.271Z,99137.44
2023-05-08T10:56:45.890Z,99140.67
2023-05-08T10:58:11.949Z,99139.34
2023-05-08T10:59:21.452Z,99134.16
2023-05-08T11:00:27.702Z,99133.91
2023-05-08T11:01:34.277Z,99134.02
2023-05-08T11:02:40.478Z,99131.39
2023-05-08T11:03:47.702Z,99131.27
2023-05-08T11:04:53.023Z,99129.59
2023-05-08T11:05:59.549Z,99131.95
2023-05-08T11:07:05.384Z,99133.05
2023-05-08T11:08:16.991Z,99133.45
2023-05-08T11:09:47.467Z,99130.27
2023-05-08T11:11:06.764Z,99131.62
2023-05-08T11:12:28.512Z,99133.52
2023-05-08T11:13:37.323Z,99136.48
2023-05-08T11:14:43.683Z,99135.28
2023-05-08T11:15:52.099Z,99136.94
2023-05-08T11:17:06.538Z,99138.77
2023-05-08T11:18:12.184Z,99141.39
2023-05-08T11:19:19.607Z,99140.38
2023-05-08T11:20:25.356Z,99139.78
2023-05-08T11:21:31.437Z,99141.46
2023-05-08T11:22:38.946Z,99140.83
2023-05-08T11:23:44.633Z,99142.02
2023-05-08T11:24:56.229Z,99144.46
2023-05-08T11:26:07.408Z,99143.02
2023-05-08T11:27:13.544Z,99139.92
2023-05-08T11:28:19.458Z,99139.63
2023-05-08T11:29:24.986Z,99142.17
2023-05-08T11:30:37.573Z,99142.34
2023-05-08T11:31:53.076Z,99128.54
2023-05-08T11:33:15.120Z,99125.21
2023-05-08T11:34:47.918Z,99123.45
2023-05-08T11:35:56.859Z,99127.64
2023-05-08T11:37:02.985Z,99130.98
2023-05-08T11:38:20.289Z,99132.56
2023-05-08T11:39:26.961Z,99134.27
2023-05-08T11:41:01.356Z,99135.32
2023-05-08T11:42:35.347Z,99133.95
2023-05-08T11:44:20.862Z,99134.29
2023-05-08T11:45:26.552Z,99135.45
2023-05-08T11:46:52.883Z,99136.63
2023-05-08T11:48:02.434Z,99141.10
2023-05-08T11:49:18.991Z,99141.33
2023-05-08T11:50:27.933Z,99141.00
2023-05-08T11:51:34.347Z,99140.52
2023-05-08T11:52:41.921Z,99139.20
2023-05-08T11:53:48.191Z,99139.14
2023-05-08T11:54:53.322Z,99138.13
2023-05-08T11:55:59.211Z,99134.66
2023-05-08T11:57:04.830Z,99135.30
2023-05-08T11:58:14.268Z,99135.41
2023-05-08T11:59:20.504Z,99133.02
2023-05-08T12:00:26.033Z,99131.84
2023-05-08T12:01:32.971Z,99129.63
2023-05-08T12:02:42.963Z,99128.58
2023-05-08T12:03:48.447Z,99127.34
2023-05-08T12:04:55.083Z,99125.12
2023-05-08T12:06:01.506Z,99127.53
2023-05-08T12:07:07.470Z,99129.76
2023-05-08T12:08:13.891Z,99124.75
2023-05-08T12:09:21.063Z,99125.24
2023-05-08T12:10:27.313Z,99129.36
2023-05-08T12:11:33.545Z,99129.95
2023-05-08T12:12:40.350Z,99135.67
2023-05-08T12:13:52.164Z,99136.71
2023-05-08T12:14:57.987Z,99137.50
2023-05-08T12:16:03.679Z,99141.15
2023-05-08T12:17:09.230Z,99136.31
2023-05-08T12:18:15.802Z,99136.05
2023-05-08T12:19:21.674Z,99140.27
2023-05-08T12:20:27.345Z,99140.43
2023-05-08T12:21:33.273Z,99138.30
2023-05-08T12:22:41.386Z,99143.80
2023-05-08T12:23:47.140Z,99147.86
2023-05-08T12:24:52.434Z,99144.21
2023-05-08T12:26:01.351Z,99144.69
2023-05-08T12:27:06.801Z,99146.51
2023-05-08T12:28:11.932Z,99145.56
2023-05-08T12:29:20.340Z,99146.73
2023-05-08T12:30:25.642Z,99147.29
2023-05-08T12:31:31.339Z,99145.86
2023-05-08T12:32:39.695Z,99147.21
2023-05-08T12:33:45.358Z,99148.63
2023-05-08T12:34:51.248Z,99147.90
2023-05-08T12:35:57.841Z,99149.20
2023-05-08T12:37:05.014Z,99148.92
2023-05-08T12:38:12.875Z,99148.11
2023-05-08T12:39:19.782Z,99149.11
2023-05-08T12:40:32.028Z,99149.48
2023-05-08T12:41:44.249Z,99150.11
2023-05-08T12:42:50.232Z,99149.42
2023-05-08T12:43:57.510Z,99153.11
2023-05-08T12:45:03.535Z,99153.31
2023-05-08T12:46:14.979Z,99159.72
2023-05-08T12:47:21.480Z,99161.02
2023-05-08T12:48:29.489Z,99162.89
2023-05-08T12:49:36.009Z,99166.29
2023-05-08T12:50:43.463Z,99167.63
2023-05-08T12:51:48.659Z,99168.19
2023-05-08T12:52:54.456Z,99167.79
2023-05-08T12:54:00.880Z,99166.20
2023-05-08T12:55:06.517Z,99164.17
2023-05-08T12:56:12.411Z,99164.33
2023-05-08T12:57:19.297Z,99166.70
2023-05-08T12:58:32.330Z,99167.82
2023-05-08T12:59:37.932Z,99171.11
2023-05-08T13:00:45.614Z,99174.52
2023-05-08T13:01:54.331Z,99174.46
2023-05-08T13:02:59.444Z,99177.30
2023-05-08T13:04:08.589Z,99176.58
2023-05-08T13:05:14.173Z,99176.70
2023-05-08T13:06:23.139Z,99178.98
2023-05-08T13:07:33.609Z,99180.20
2023-05-08T13:08:43.019Z,99178.11
2023-05-08T13:10:05.511Z,99176.02
2023-05-08T13:11:10.947Z,99172.52
2023-05-08T13:12:16.583Z,99172.59
2023-05-08T13:13:24.650Z,99179.89
2023-05-08T13:14:30.986Z,99183.55
2023-05-08T13:15:36.880Z,99182.80
2023-05-08T13:16:46.425Z,99183.05
2023-05-08T13:17:52.129Z,99184.73
2023-05-08T13:18:57.693Z,99188.55
2023-05-08T13:20:06.175Z,99186.23
2023-05-08T13:21:12.006Z,99188.92
2023-05-08T13:22:17.830Z,99189.35
2023-05-08T13:23:24.085Z,99192.45
2023-05-08T13:24:30.427Z,99190.63
2023-05-08T13:25:37.512Z,99193.42
2023-05-08T13:26:43.523Z,99194.87
2023-05-08T13:27:49.630Z,99194.17
2023-05-08T13:28:56.673Z,99193.00
2023-05-08T13:30:02.275Z,99191.09
2023-05-08T13:31:08.735Z,99191.91
2023-05-08T13:32:14.963Z,99190.67
2023-05-08T13:33:21.277Z,99189.82